sensor_id;sensor_type;location;lat;lon;timestamp;temperature;humidity
5286;DHT22;2665;53.112;7.358;2023-06-10T09:42:16;22.70;99.90
5286;DHT22;2665;53.112;7.358;2023-06-10T09:44:52;22.60;99.90
5286;DHT22;2665;53.112;7.358;2023-06-10T09:47:21;22.80;99.90
5286;DHT22;2665;53.112;7.358;2023-06-10T09:49:51;22.90;99.90
5286;DHT22;2665;53.112;7.358;2023-06-10T09:52:25;23.00;99.90
5286;DHT22;2665;53.112;7.358;2023-06-10T09:54:52;23.10;99.90
5286;DHT22;2665;53.112;7.358;2023-06-10T09:57:20;23.20;99.90
5286;DHT22;2665;53.112;7.358;2023-06-10T09:59:46;23.30;99.90
5286;DHT22;2665;53.112;7.358;2023-06-10T10:02:16;23.40;99.90
5286;DHT22;2665;53.112;7.358;2023-06-10T10:04:43;23.50;99.90
5286;DHT22;2665;53.112;7.358;2023-06-10T10:07:09;23.60;99.90
5286;DHT22;2665;53.112;7.358;2023-06-10T10:09:39;23.70;99.90
5286;DHT22;2665;53.112;7.358;2023-06-10T10:12:12;23.80;99.90
5286;DHT22;2665;53.112;7.358;2023-06-10T10:14:39;24.00;99.90
5286;DHT22;2665;53.112;7.358;2023-06-10T10:17:10;24.00;99.90
5286;DHT22;2665;53.112;7.358;2023-06-10T10:19:43;24.10;99.90
5286;DHT22;2665;53.112;7.358;2023-06-10T10:22:16;24.20;99.90
5286;DHT22;2665;53.112;7.358;2023-06-10T10:24:52;24.20;99.90
5286;DHT22;2665;53.112;7.358;2023-06-10T10:27:30;24.20;99.90
5286;DHT22;2665;53.112;7.358;2023-06-10T10:29:58;24.20;99.90
5286;DHT22;2665;53.112;7.358;2023-06-10T10:35:21;24.10;99.90
5286;DHT22;2665;53.112;7.358;2023-06-10T10:37:52;24.10;99.90
5286;DHT22;2665;53.112;7.358;2023-06-10T10:40:20;24.00;99.90
5286;DHT22;2665;53.112;7.358;2023-06-10T10:42:48;24.00;99.90
5286;DHT22;2665;53.112;7.358;2023-06-10T10:45:14;24.10;99.90
5286;DHT22;2665;53.112;7.358;2023-06-10T10:47:41;24.20;99.90
5286;DHT22;2665;53.112;7.358;2023-06-10T10:50:19;24.30;99.90
5286;DHT22;2665;53.112;7.358;2023-06-10T10:52:55;24.40;99.90
5286;DHT22;2665;53.112;7.358;2023-06-10T10:55:22;24.50;99.90
5286;DHT22;2665;53.112;7.358;2023-06-10T10:57:58;24.60;99.90
5286;DHT22;2665;53.112;7.358;2023-06-10T11:00:32;24.70;99.90
5286;DHT22;2665;53.112;7.358;2023-06-10T11:03:07;24.90;99.90
5286;DHT22;2665;53.112;7.358;2023-06-10T11:08:02;25.10;99.90
5286;DHT22;2665;53.112;7.358;2023-06-10T11:10:30;25.20;99.90
5286;DHT22;2665;53.112;7.358;2023-06-10T11:12:56;25.30;99.90
5286;DHT22;2665;53.112;7.358;2023-06-10T11:15:25;25.40;99.90
5286;DHT22;2665;53.112;7.358;2023-06-10T11:20:56;26.90;99.90
5286;DHT22;2665;53.112;7.358;2023-06-10T11:29:01;30.60;55.60
5286;DHT22;2665;53.112;7.358;2023-06-10T11:31:29;31.40;37.50
5286;DHT22;2665;53.112;7.358;2023-06-10T11:33:56;32.10;25.00
5286;DHT22;2665;53.112;7.358;2023-06-10T11:36:23;32.60;16.90
5286;DHT22;2665;53.112;7.358;2023-06-10T11:38:51;32.90;9.90
5286;DHT22;2665;53.112;7.358;2023-06-10T11:41:18;32.80;6.40
5286;DHT22;2665;53.112;7.358;2023-06-10T11:43:44;33.00;4.60
5286;DHT22;2665;53.112;7.358;2023-06-10T11:46:12;33.20;3.70
5286;DHT22;2665;53.112;7.358;2023-06-10T11:48:37;33.20;2.90
5286;DHT22;2665;53.112;7.358;2023-06-10T11:51:06;33.30;3.00
5286;DHT22;2665;53.112;7.358;2023-06-10T11:53:33;33.20;2.60
5286;DHT22;2665;53.112;7.358;2023-06-10T11:55:58;33.10;3.60
5286;DHT22;2665;53.112;7.358;2023-06-10T11:58:24;33.10;4.70
5286;DHT22;2665;53.112;7.358;2023-06-10T12:00:51;33.30;5.70
5286;DHT22;2665;53.112;7.358;2023-06-10T12:03:24;33.10;6.40
5286;DHT22;2665;53.112;7.358;2023-06-10T12:06:03;33.20;7.10
5286;DHT22;2665;53.112;7.358;2023-06-10T12:08:29;33.20;6.80
5286;DHT22;2665;53.112;7.358;2023-06-10T12:10:55;33.10;7.20
5286;DHT22;2665;53.112;7.358;2023-06-10T12:13:22;33.40;9.10
5286;DHT22;2665;53.112;7.358;2023-06-10T12:15:49;33.90;7.70
5286;DHT22;2665;53.112;7.358;2023-06-10T12:18:19;34.00;7.70
5286;DHT22;2665;53.112;7.358;2023-06-10T12:20:45;34.30;7.80
5286;DHT22;2665;53.112;7.358;2023-06-10T12:23:11;34.30;7.50
5286;DHT22;2665;53.112;7.358;2023-06-10T12:25:38;34.30;8.80
5286;DHT22;2665;53.112;7.358;2023-06-10T12:28:04;34.50;9.10
5286;DHT22;2665;53.112;7.358;2023-06-10T12:30:31;34.40;10.60
5286;DHT22;2665;53.112;7.358;2023-06-10T12:32:57;34.30;13.20
5286;DHT22;2665;53.112;7.358;2023-06-10T12:35:27;34.30;14.20
5286;DHT22;2665;53.112;7.358;2023-06-10T12:38:01;34.30;16.70
5286;DHT22;2665;53.112;7.358;2023-06-10T12:40:34;34.50;17.10
5286;DHT22;2665;53.112;7.358;2023-06-10T12:43:01;34.50;16.80
5286;DHT22;2665;53.112;7.358;2023-06-10T12:45:28;34.80;17.60
5286;DHT22;2665;53.112;7.358;2023-06-10T12:50:35;35.10;19.40
5286;DHT22;2665;53.112;7.358;2023-06-10T12:53:03;35.40;35.10
5286;DHT22;2665;53.112;7.358;2023-06-10T12:55:29;35.60;23.20
5286;DHT22;2665;53.112;7.358;2023-06-10T12:57:54;35.50;24.00
5286;DHT22;2665;53.112;7.358;2023-06-10T13:00:21;35.30;25.70
5286;DHT22;2665;53.112;7.358;2023-06-10T13:02:48;35.30;27.90
5286;DHT22;2665;53.112;7.358;2023-06-10T13:05:16;35.40;29.80
5286;DHT22;2665;53.112;7.358;2023-06-10T13:07:43;35.60;30.10
5286;DHT22;2665;53.112;7.358;2023-06-10T13:10:09;35.70;31.60
5286;DHT22;2665;53.112;7.358;2023-06-10T13:12:34;35.50;34.60
5286;DHT22;2665;53.112;7.358;2023-06-10T13:15:01;35.50;36.40
5286;DHT22;2665;53.112;7.358;2023-06-10T13:17:27;35.40;37.70
5286;DHT22;2665;53.112;7.358;2023-06-10T13:19:53;35.10;40.90
5286;DHT22;2665;53.112;7.358;2023-06-10T13:22:18;34.90;42.30
5286;DHT22;2665;53.112;7.358;2023-06-10T13:24:45;34.80;45.60
5286;DHT22;2665;53.112;7.358;2023-06-10T13:27:12;34.90;47.80
5286;DHT22;2665;53.112;7.358;2023-06-10T13:29:39;34.90;49.10
5286;DHT22;2665;53.112;7.358;2023-06-10T13:32:06;34.80;49.70
5286;DHT22;2665;53.112;7.358;2023-06-10T13:34:32;34.70;52.60
5286;DHT22;2665;53.112;7.358;2023-06-10T13:36:57;34.70;57.30
5286;DHT22;2665;53.112;7.358;2023-06-10T13:39:24;34.90;55.60
5286;DHT22;2665;53.112;7.358;2023-06-10T13:41:49;35.00;56.90
5286;DHT22;2665;53.112;7.358;2023-06-10T13:44:15;35.10;57.70
5286;DHT22;2665;53.112;7.358;2023-06-10T13:46:40;35.20;58.70
5286;DHT22;2665;53.112;7.358;2023-06-10T13:49:06;35.40;59.30
5286;DHT22;2665;53.112;7.358;2023-06-10T13:51:31;35.50;60.70
5286;DHT22;2665;53.112;7.358;2023-06-10T13:53:57;35.70;61.40
5286;DHT22;2665;53.112;7.358;2023-06-10T13:56:23;35.90;64.00
5286;DHT22;2665;53.112;7.358;2023-06-10T13:58:48;36.20;65.50
5286;DHT22;2665;53.112;7.358;2023-06-10T14:01:14;36.50;65.10
5286;DHT22;2665;53.112;7.358;2023-06-10T14:03:40;36.50;66.20
5286;DHT22;2665;53.112;7.358;2023-06-10T14:06:05;36.60;69.30
5286;DHT22;2665;53.112;7.358;2023-06-10T14:08:31;36.50;70.40
5286;DHT22;2665;53.112;7.358;2023-06-10T14:10:57;36.40;73.90
5286;DHT22;2665;53.112;7.358;2023-06-10T14:13:22;36.50;76.30
5286;DHT22;2665;53.112;7.358;2023-06-10T14:15:48;36.50;77.70
5286;DHT22;2665;53.112;7.358;2023-06-10T14:18:14;36.60;80.60
5286;DHT22;2665;53.112;7.358;2023-06-10T14:20:39;36.80;82.10
5286;DHT22;2665;53.112;7.358;2023-06-10T14:23:05;36.90;83.70
5286;DHT22;2665;53.112;7.358;2023-06-10T14:25:30;36.90;85.70
5286;DHT22;2665;53.112;7.358;2023-06-10T14:27:56;37.00;87.80
5286;DHT22;2665;53.112;7.358;2023-06-10T14:30:23;37.00;90.30
5286;DHT22;2665;53.112;7.358;2023-06-10T14:32:48;36.90;90.60
5286;DHT22;2665;53.112;7.358;2023-06-10T14:35:14;36.90;91.90
5286;DHT22;2665;53.112;7.358;2023-06-10T14:37:40;36.80;92.10
5286;DHT22;2665;53.112;7.358;2023-06-10T14:40:05;36.50;94.30
5286;DHT22;2665;53.112;7.358;2023-06-10T14:42:31;36.30;95.80
5286;DHT22;2665;53.112;7.358;2023-06-10T14:44:58;36.50;96.60
5286;DHT22;2665;53.112;7.358;2023-06-10T14:47:23;36.70;98.40
5286;DHT22;2665;53.112;7.358;2023-06-10T14:49:49;36.80;98.30
5286;DHT22;2665;53.112;7.358;2023-06-10T14:52:15;36.90;99.90
5286;DHT22;2665;53.112;7.358;2023-06-10T14:54:41;36.90;99.90
5286;DHT22;2665;53.112;7.358;2023-06-10T14:57:07;36.90;99.90
5286;DHT22;2665;53.112;7.358;2023-06-10T14:59:33;37.30;99.90
5286;DHT22;2665;53.112;7.358;2023-06-10T15:01:59;37.50;99.90
5286;DHT22;2665;53.112;7.358;2023-06-10T15:04:26;37.30;99.90
5286;DHT22;2665;53.112;7.358;2023-06-10T15:06:52;37.40;99.90
5286;DHT22;2665;53.112;7.358;2023-06-10T15:09:18;37.60;99.90
5286;DHT22;2665;53.112;7.358;2023-06-10T15:11:44;37.70;99.90
5286;DHT22;2665;53.112;7.358;2023-06-10T15:14:10;37.80;99.90
5286;DHT22;2665;53.112;7.358;2023-06-10T15:16:36;37.80;99.90
5286;DHT22;2665;53.112;7.358;2023-06-10T15:19:01;38.00;99.90
5286;DHT22;2665;53.112;7.358;2023-06-10T15:21:27;37.90;99.90
5286;DHT22;2665;53.112;7.358;2023-06-10T15:23:52;37.60;99.90
5286;DHT22;2665;53.112;7.358;2023-06-10T15:26:18;37.70;99.90
5286;DHT22;2665;53.112;7.358;2023-06-10T15:28:44;38.00;99.90
5286;DHT22;2665;53.112;7.358;2023-06-10T15:31:09;38.30;99.90
5286;DHT22;2665;53.112;7.358;2023-06-10T15:33:35;38.50;99.90
5286;DHT22;2665;53.112;7.358;2023-06-10T15:36:01;38.60;99.90
5286;DHT22;2665;53.112;7.358;2023-06-10T15:38:27;38.40;99.90
5286;DHT22;2665;53.112;7.358;2023-06-10T15:40:52;38.50;99.90
5286;DHT22;2665;53.112;7.358;2023-06-10T15:43:19;38.90;99.90
5286;DHT22;2665;53.112;7.358;2023-06-10T15:45:44;39.20;99.90
5286;DHT22;2665;53.112;7.358;2023-06-10T15:48:10;39.20;99.90
5286;DHT22;2665;53.112;7.358;2023-06-10T15:50:36;38.90;99.90
5286;DHT22;2665;53.112;7.358;2023-06-10T15:53:01;38.90;99.90
5286;DHT22;2665;53.112;7.358;2023-06-10T15:55:27;38.80;99.90
5286;DHT22;2665;53.112;7.358;2023-06-10T15:57:54;38.80;99.90
5286;DHT22;2665;53.112;7.358;2023-06-10T16:00:20;38.60;99.90
5286;DHT22;2665;53.112;7.358;2023-06-10T16:02:46;38.60;99.90
5286;DHT22;2665;53.112;7.358;2023-06-10T16:05:11;38.50;99.90
5286;DHT22;2665;53.112;7.358;2023-06-10T16:07:37;38.70;99.90
5286;DHT22;2665;53.112;7.358;2023-06-10T16:10:03;38.70;99.90
5286;DHT22;2665;53.112;7.358;2023-06-10T16:12:29;39.00;99.90
5286;DHT22;2665;53.112;7.358;2023-06-10T16:14:55;39.00;99.90
5286;DHT22;2665;53.112;7.358;2023-06-10T16:17:21;39.00;99.90
5286;DHT22;2665;53.112;7.358;2023-06-10T16:19:47;39.10;99.90
5286;DHT22;2665;53.112;7.358;2023-06-10T16:22:12;39.20;99.90
5286;DHT22;2665;53.112;7.358;2023-06-10T16:24:38;38.90;99.90
5286;DHT22;2665;53.112;7.358;2023-06-10T16:27:04;38.60;99.90
5286;DHT22;2665;53.112;7.358;2023-06-10T16:29:32;38.40;99.90
5286;DHT22;2665;53.112;7.358;2023-06-10T16:31:57;38.50;99.90
5286;DHT22;2665;53.112;7.358;2023-06-10T16:34:23;38.60;99.90
5286;DHT22;2665;53.112;7.358;2023-06-10T16:36:48;38.60;99.90
5286;DHT22;2665;53.112;7.358;2023-06-10T16:39:15;38.40;99.90
5286;DHT22;2665;53.112;7.358;2023-06-10T16:41:40;38.20;99.90
5286;DHT22;2665;53.112;7.358;2023-06-10T16:44:06;38.00;99.90
5286;DHT22;2665;53.112;7.358;2023-06-10T16:46:31;37.90;99.90
5286;DHT22;2665;53.112;7.358;2023-06-10T16:48:57;37.80;99.90
5286;DHT22;2665;53.112;7.358;2023-06-10T16:51:23;37.70;99.90
5286;DHT22;2665;53.112;7.358;2023-06-10T16:53:48;37.80;99.90
5286;DHT22;2665;53.112;7.358;2023-06-10T16:56:14;37.50;99.90
5286;DHT22;2665;53.112;7.358;2023-06-10T16:58:39;37.40;99.90
5286;DHT22;2665;53.112;7.358;2023-06-10T17:01:07;37.40;99.90
5286;DHT22;2665;53.112;7.358;2023-06-10T17:03:33;37.40;99.90
5286;DHT22;2665;53.112;7.358;2023-06-10T17:05:58;37.20;99.90
5286;DHT22;2665;53.112;7.358;2023-06-10T17:08:24;37.00;99.90
5286;DHT22;2665;53.112;7.358;2023-06-10T17:10:49;36.90;99.90
5286;DHT22;2665;53.112;7.358;2023-06-10T17:13:15;36.90;99.90
5286;DHT22;2665;53.112;7.358;2023-06-10T17:15:41;36.70;99.90
5286;DHT22;2665;53.112;7.358;2023-06-10T17:18:06;36.50;99.90
5286;DHT22;2665;53.112;7.358;2023-06-10T17:20:32;36.30;99.90
5286;DHT22;2665;53.112;7.358;2023-06-10T17:22:58;36.20;99.90
5286;DHT22;2665;53.112;7.358;2023-06-10T17:25:23;36.00;99.90
5286;DHT22;2665;53.112;7.358;2023-06-10T17:27:49;36.10;99.90
5286;DHT22;2665;53.112;7.358;2023-06-10T17:30:15;36.10;99.90
5286;DHT22;2665;53.112;7.358;2023-06-10T17:32:41;36.10;99.90
5286;DHT22;2665;53.112;7.358;2023-06-10T17:35:08;36.10;99.90
5286;DHT22;2665;53.112;7.358;2023-06-10T17:37:33;36.00;99.90
5286;DHT22;2665;53.112;7.358;2023-06-10T17:39:59;35.80;99.90
5286;DHT22;2665;53.112;7.358;2023-06-10T17:42:25;35.70;99.90
5286;DHT22;2665;53.112;7.358;2023-06-10T17:44:51;35.60;99.90
5286;DHT22;2665;53.112;7.358;2023-06-10T17:47:16;35.30;99.90
5286;DHT22;2665;53.112;7.358;2023-06-10T17:49:42;35.20;99.90
5286;DHT22;2665;53.112;7.358;2023-06-10T17:52:07;35.10;99.90
5286;DHT22;2665;53.112;7.358;2023-06-10T17:54:33;35.00;99.90
5286;DHT22;2665;53.112;7.358;2023-06-10T17:56:59;34.90;99.90
5286;DHT22;2665;53.112;7.358;2023-06-10T17:59:26;34.80;99.90
5286;DHT22;2665;53.112;7.358;2023-06-10T18:01:51;34.70;99.90
5286;DHT22;2665;53.112;7.358;2023-06-10T18:04:17;34.60;99.90
5286;DHT22;2665;53.112;7.358;2023-06-10T18:06:42;34.50;99.90
5286;DHT22;2665;53.112;7.358;2023-06-10T18:09:08;34.20;99.90
5286;DHT22;2665;53.112;7.358;2023-06-10T18:11:34;34.00;99.90
5286;DHT22;2665;53.112;7.358;2023-06-10T18:14:00;33.70;99.90
5286;DHT22;2665;53.112;7.358;2023-06-10T18:16:25;33.40;99.90
5286;DHT22;2665;53.112;7.358;2023-06-10T18:18:52;33.20;99.90
5286;DHT22;2665;53.112;7.358;2023-06-10T18:21:18;33.00;99.90
5286;DHT22;2665;53.112;7.358;2023-06-10T18:23:43;32.80;99.90
5286;DHT22;2665;53.112;7.358;2023-06-10T18:26:10;32.50;99.90
5286;DHT22;2665;53.112;7.358;2023-06-10T18:28:35;32.20;99.90
5286;DHT22;2665;53.112;7.358;2023-06-10T18:31:01;31.90;99.90
5286;DHT22;2665;53.112;7.358;2023-06-10T18:33:27;31.70;99.90
5286;DHT22;2665;53.112;7.358;2023-06-10T18:35:55;31.60;99.90
5286;DHT22;2665;53.112;7.358;2023-06-10T18:38:21;31.60;99.90
5286;DHT22;2665;53.112;7.358;2023-06-10T18:40:47;31.40;99.90
5286;DHT22;2665;53.112;7.358;2023-06-10T18:43:12;31.30;99.90
5286;DHT22;2665;53.112;7.358;2023-06-10T18:45:38;31.20;99.90
5286;DHT22;2665;53.112;7.358;2023-06-10T18:48:04;31.00;99.90
5286;DHT22;2665;53.112;7.358;2023-06-10T18:52:56;30.50;99.90
5286;DHT22;2665;53.112;7.358;2023-06-10T18:55:22;29.90;99.90
5286;DHT22;2665;53.112;7.358;2023-06-10T18:57:48;29.30;99.90
5286;DHT22;2665;53.112;7.358;2023-06-10T19:00:14;28.70;99.90
5286;DHT22;2665;53.112;7.358;2023-06-10T19:02:40;28.10;99.90
5286;DHT22;2665;53.112;7.358;2023-06-10T19:05:07;27.60;99.90
5286;DHT22;2665;53.112;7.358;2023-06-10T19:07:34;27.00;99.90
5286;DHT22;2665;53.112;7.358;2023-06-10T19:10:00;26.50;99.90
5286;DHT22;2665;53.112;7.358;2023-06-10T19:12:25;26.20;99.90
5286;DHT22;2665;53.112;7.358;2023-06-10T19:14:51;25.70;99.90
5286;DHT22;2665;53.112;7.358;2023-06-10T19:17:17;25.30;99.90
5286;DHT22;2665;53.112;7.358;2023-06-10T19:19:42;25.10;99.90
5286;DHT22;2665;53.112;7.358;2023-06-10T19:22:08;24.80;99.90
5286;DHT22;2665;53.112;7.358;2023-06-10T19:24:33;24.60;99.90
5286;DHT22;2665;53.112;7.358;2023-06-10T19:26:59;24.40;99.90
5286;DHT22;2665;53.112;7.358;2023-06-10T19:29:25;24.20;99.90
5286;DHT22;2665;53.112;7.358;2023-06-10T19:31:51;24.10;99.90
5286;DHT22;2665;53.112;7.358;2023-06-10T19:34:16;24.00;99.90
5286;DHT22;2665;53.112;7.358;2023-06-10T19:36:42;23.90;99.90
5286;DHT22;2665;53.112;7.358;2023-06-10T19:39:08;23.80;99.90
5286;DHT22;2665;53.112;7.358;2023-06-10T19:41:34;23.80;99.90
5286;DHT22;2665;53.112;7.358;2023-06-10T19:56:13;23.30;99.90
5286;DHT22;2665;53.112;7.358;2023-06-10T19:58:47;23.10;99.90
5286;DHT22;2665;53.112;7.358;2023-06-10T20:01:13;23.00;99.90
5286;DHT22;2665;53.112;7.358;2023-06-10T20:03:39;23.00;99.90
5286;DHT22;2665;53.112;7.358;2023-06-10T20:06:05;22.90;99.90
5286;DHT22;2665;53.112;7.358;2023-06-10T20:08:31;22.80;99.90
5286;DHT22;2665;53.112;7.358;2023-06-10T20:10:57;22.80;99.90
5286;DHT22;2665;53.112;7.358;2023-06-10T20:13:22;22.70;99.90
5286;DHT22;2665;53.112;7.358;2023-06-10T20:15:48;22.60;99.90
5286;DHT22;2665;53.112;7.358;2023-06-10T20:18:14;22.60;99.90
5286;DHT22;2665;53.112;7.358;2023-06-10T20:20:39;22.50;99.90
5286;DHT22;2665;53.112;7.358;2023-06-10T20:23:05;22.50;99.90
5286;DHT22;2665;53.112;7.358;2023-06-10T20:25:31;22.40;99.90
5286;DHT22;2665;53.112;7.358;2023-06-10T20:27:59;22.40;99.90
5286;DHT22;2665;53.112;7.358;2023-06-10T20:30:25;22.30;99.90
5286;DHT22;2665;53.112;7.358;2023-06-10T20:32:51;22.20;99.90
5286;DHT22;2665;53.112;7.358;2023-06-10T20:35:18;22.20;99.90
5286;DHT22;2665;53.112;7.358;2023-06-10T20:37:45;22.10;99.90
5286;DHT22;2665;53.112;7.358;2023-06-10T20:40:11;22.10;99.90
5286;DHT22;2665;53.112;7.358;2023-06-10T20:42:39;22.00;99.90
5286;DHT22;2665;53.112;7.358;2023-06-10T20:45:05;22.00;99.90
5286;DHT22;2665;53.112;7.358;2023-06-10T20:47:31;21.90;99.90
5286;DHT22;2665;53.112;7.358;2023-06-10T20:49:57;21.90;99.90
5286;DHT22;2665;53.112;7.358;2023-06-10T20:52:23;21.80;99.90
5286;DHT22;2665;53.112;7.358;2023-06-10T20:54:48;21.70;99.90
5286;DHT22;2665;53.112;7.358;2023-06-10T20:57:14;21.60;99.90
5286;DHT22;2665;53.112;7.358;2023-06-10T20:59:40;21.60;99.90
5286;DHT22;2665;53.112;7.358;2023-06-10T21:02:06;21.50;99.90
5286;DHT22;2665;53.112;7.358;2023-06-10T21:04:32;21.40;99.90
5286;DHT22;2665;53.112;7.358;2023-06-10T21:06:58;21.30;99.90
5286;DHT22;2665;53.112;7.358;2023-06-10T21:09:23;21.20;99.90
5286;DHT22;2665;53.112;7.358;2023-06-10T21:11:49;21.10;99.90
5286;DHT22;2665;53.112;7.358;2023-06-10T21:14:15;21.10;99.90
5286;DHT22;2665;53.112;7.358;2023-06-10T21:16:41;21.10;99.90
5286;DHT22;2665;53.112;7.358;2023-06-10T21:19:06;21.00;99.90
5286;DHT22;2665;53.112;7.358;2023-06-10T21:21:32;21.00;99.90
5286;DHT22;2665;53.112;7.358;2023-06-10T21:23:58;21.00;99.90
5286;DHT22;2665;53.112;7.358;2023-06-10T21:26:23;20.90;99.90
5286;DHT22;2665;53.112;7.358;2023-06-10T21:28:49;20.90;99.90
5286;DHT22;2665;53.112;7.358;2023-06-10T21:31:14;20.90;99.90
5286;DHT22;2665;53.112;7.358;2023-06-10T21:33:40;20.90;99.90
5286;DHT22;2665;53.112;7.358;2023-06-10T21:36:06;20.80;99.90
5286;DHT22;2665;53.112;7.358;2023-06-10T21:38:31;20.80;99.90
5286;DHT22;2665;53.112;7.358;2023-06-10T21:40:57;20.80;99.90
5286;DHT22;2665;53.112;7.358;2023-06-10T21:43:22;20.90;99.90
5286;DHT22;2665;53.112;7.358;2023-06-10T21:45:48;20.90;99.90
5286;DHT22;2665;53.112;7.358;2023-06-10T21:48:15;20.90;99.90
5286;DHT22;2665;53.112;7.358;2023-06-10T21:50:40;20.90;99.90
5286;DHT22;2665;53.112;7.358;2023-06-10T21:53:06;20.90;99.90
5286;DHT22;2665;53.112;7.358;2023-06-10T21:55:32;20.80;99.90
5286;DHT22;2665;53.112;7.358;2023-06-10T21:57:57;20.80;99.90
5286;DHT22;2665;53.112;7.358;2023-06-10T22:00:23;20.80;99.90
5286;DHT22;2665;53.112;7.358;2023-06-10T22:02:49;20.80;99.90
5286;DHT22;2665;53.112;7.358;2023-06-10T22:05:16;20.80;99.90
5286;DHT22;2665;53.112;7.358;2023-06-10T22:07:43;20.70;99.90
5286;DHT22;2665;53.112;7.358;2023-06-10T22:10:09;20.70;99.90
5286;DHT22;2665;53.112;7.358;2023-06-10T22:12:35;20.70;99.90
5286;DHT22;2665;53.112;7.358;2023-06-10T22:15:01;20.60;99.90
5286;DHT22;2665;53.112;7.358;2023-06-10T22:17:27;20.50;99.90
5286;DHT22;2665;53.112;7.358;2023-06-10T22:19:52;20.50;99.90
5286;DHT22;2665;53.112;7.358;2023-06-10T22:22:18;20.50;99.90
5286;DHT22;2665;53.112;7.358;2023-06-10T22:24:46;20.40;99.90
5286;DHT22;2665;53.112;7.358;2023-06-10T22:27:15;20.30;99.90
5286;DHT22;2665;53.112;7.358;2023-06-10T22:29:40;20.30;99.90
5286;DHT22;2665;53.112;7.358;2023-06-10T22:32:06;20.20;99.90
5286;DHT22;2665;53.112;7.358;2023-06-10T22:34:32;20.20;99.90
5286;DHT22;2665;53.112;7.358;2023-06-10T22:36:58;20.20;99.90
5286;DHT22;2665;53.112;7.358;2023-06-10T22:39:23;20.10;99.90
5286;DHT22;2665;53.112;7.358;2023-06-10T22:41:49;20.10;99.90
5286;DHT22;2665;53.112;7.358;2023-06-10T22:44:14;20.00;99.90
5286;DHT22;2665;53.112;7.358;2023-06-10T22:46:40;20.00;99.90
5286;DHT22;2665;53.112;7.358;2023-06-10T22:49:06;19.90;99.90
5286;DHT22;2665;53.112;7.358;2023-06-10T22:51:32;19.90;99.90
5286;DHT22;2665;53.112;7.358;2023-06-10T22:53:57;19.90;99.90
5286;DHT22;2665;53.112;7.358;2023-06-10T22:56:25;19.80;99.90
5286;DHT22;2665;53.112;7.358;2023-06-10T22:58:51;19.80;99.90
5286;DHT22;2665;53.112;7.358;2023-06-10T23:01:17;19.80;99.90
5286;DHT22;2665;53.112;7.358;2023-06-10T23:03:42;19.80;99.90
5286;DHT22;2665;53.112;7.358;2023-06-10T23:06:08;19.90;99.90
5286;DHT22;2665;53.112;7.358;2023-06-10T23:08:34;19.90;99.90
5286;DHT22;2665;53.112;7.358;2023-06-10T23:10:59;19.90;99.90
5286;DHT22;2665;53.112;7.358;2023-06-10T23:13:25;20.00;99.90
5286;DHT22;2665;53.112;7.358;2023-06-10T23:15:50;19.90;99.90
5286;DHT22;2665;53.112;7.358;2023-06-10T23:18:17;20.00;99.90
5286;DHT22;2665;53.112;7.358;2023-06-10T23:20:44;20.00;99.90
5286;DHT22;2665;53.112;7.358;2023-06-10T23:23:10;20.00;99.90
5286;DHT22;2665;53.112;7.358;2023-06-10T23:25:39;19.90;99.90
5286;DHT22;2665;53.112;7.358;2023-06-10T23:28:04;19.90;99.90
5286;DHT22;2665;53.112;7.358;2023-06-10T23:30:30;19.80;99.90
5286;DHT22;2665;53.112;7.358;2023-06-10T23:32:55;19.80;99.90
5286;DHT22;2665;53.112;7.358;2023-06-10T23:35:22;19.70;99.90
5286;DHT22;2665;53.112;7.358;2023-06-10T23:37:47;19.70;99.90
5286;DHT22;2665;53.112;7.358;2023-06-10T23:40:14;19.60;99.90
5286;DHT22;2665;53.112;7.358;2023-06-10T23:42:40;19.60;99.90
5286;DHT22;2665;53.112;7.358;2023-06-10T23:45:06;19.60;99.90
